sensor_id;sensor_type;location;lat;lon;timestamp;P1;durP1;ratioP1;P2;durP2;ratioP2
23680;SDS011;62915;50.832;4.462;2023-05-19T00:00:02;9.85;;;7.00;;
23680;SDS011;62915;50.832;4.462;2023-05-19T00:02:28;12.23;;;7.45;;
23680;SDS011;62915;50.832;4.462;2023-05-19T00:04:58;12.00;;;6.90;;
23680;SDS011;62915;50.832;4.462;2023-05-19T00:07:27;12.07;;;7.15;;
23680;SDS011;62915;50.832;4.462;2023-05-19T00:09:55;11.05;;;7.32;;
23680;SDS011;62915;50.832;4.462;2023-05-19T00:12:22;12.18;;;7.75;;
23680;SDS011;62915;50.832;4.462;2023-05-19T00:14:48;13.57;;;7.68;;
23680;SDS011;62915;50.832;4.462;2023-05-19T00:17:14;15.50;;;7.72;;
23680;SDS011;62915;50.832;4.462;2023-05-19T00:19:41;11.05;;;7.00;;
23680;SDS011;62915;50.832;4.462;2023-05-19T00:22:09;11.27;;;7.18;;
23680;SDS011;62915;50.832;4.462;2023-05-19T00:24:35;9.95;;;6.93;;
23680;SDS011;62915;50.832;4.462;2023-05-19T00:27:01;15.50;;;7.95;;
23680;SDS011;62915;50.832;4.462;2023-05-19T00:29:27;10.13;;;7.47;;
23680;SDS011;62915;50.832;4.462;2023-05-19T00:31:53;14.65;;;7.70;;
23680;SDS011;62915;50.832;4.462;2023-05-19T00:34:20;13.70;;;7.55;;
23680;SDS011;62915;50.832;4.462;2023-05-19T00:36:46;13.80;;;7.53;;
23680;SDS011;62915;50.832;4.462;2023-05-19T00:39:11;13.18;;;7.65;;
23680;SDS011;62915;50.832;4.462;2023-05-19T00:41:37;13.95;;;7.90;;
23680;SDS011;62915;50.832;4.462;2023-05-19T00:44:03;12.32;;;8.50;;
23680;SDS011;62915;50.832;4.462;2023-05-19T00:46:29;13.27;;;8.20;;
23680;SDS011;62915;50.832;4.462;2023-05-19T00:48:54;10.98;;;7.60;;
23680;SDS011;62915;50.832;4.462;2023-05-19T00:51:21;14.70;;;7.75;;
23680;SDS011;62915;50.832;4.462;2023-05-19T00:53:48;16.40;;;8.60;;
23680;SDS011;62915;50.832;4.462;2023-05-19T00:56:16;13.23;;;8.15;;
23680;SDS011;62915;50.832;4.462;2023-05-19T00:58:43;13.00;;;8.20;;
23680;SDS011;62915;50.832;4.462;2023-05-19T01:01:09;13.88;;;8.18;;
23680;SDS011;62915;50.832;4.462;2023-05-19T01:03:36;11.50;;;7.65;;
23680;SDS011;62915;50.832;4.462;2023-05-19T01:06:04;14.90;;;8.63;;
23680;SDS011;62915;50.832;4.462;2023-05-19T01:08:31;12.20;;;8.80;;
23680;SDS011;62915;50.832;4.462;2023-05-19T01:10:57;15.68;;;9.05;;
23680;SDS011;62915;50.832;4.462;2023-05-19T01:13:24;13.25;;;8.30;;
23680;SDS011;62915;50.832;4.462;2023-05-19T01:15:56;11.05;;;8.68;;
23680;SDS011;62915;50.832;4.462;2023-05-19T01:18:24;15.85;;;8.82;;
23680;SDS011;62915;50.832;4.462;2023-05-19T01:24:06;14.93;;;9.88;;
23680;SDS011;62915;50.832;4.462;2023-05-19T01:29:47;12.65;;;9.23;;
23680;SDS011;62915;50.832;4.462;2023-05-19T01:32:34;19.17;;;9.45;;
23680;SDS011;62915;50.832;4.462;2023-05-19T01:35:04;15.25;;;9.43;;
23680;SDS011;62915;50.832;4.462;2023-05-19T01:37:32;20.35;;;9.80;;
23680;SDS011;62915;50.832;4.462;2023-05-19T01:39:59;18.27;;;9.52;;
23680;SDS011;62915;50.832;4.462;2023-05-19T01:42:25;12.05;;;9.23;;
23680;SDS011;62915;50.832;4.462;2023-05-19T01:44:53;16.27;;;9.65;;
23680;SDS011;62915;50.832;4.462;2023-05-19T01:47:20;12.52;;;8.73;;
23680;SDS011;62915;50.832;4.462;2023-05-19T01:49:47;14.98;;;8.93;;
23680;SDS011;62915;50.832;4.462;2023-05-19T01:52:13;15.40;;;9.95;;
23680;SDS011;62915;50.832;4.462;2023-05-19T01:54:38;19.00;;;9.45;;
23680;SDS011;62915;50.832;4.462;2023-05-19T02:05:44;14.15;;;10.07;;
23680;SDS011;62915;50.832;4.462;2023-05-19T02:11:37;14.45;;;10.18;;
23680;SDS011;62915;50.832;4.462;2023-05-19T02:14:12;19.15;;;10.20;;
23680;SDS011;62915;50.832;4.462;2023-05-19T02:16:44;15.25;;;9.32;;
23680;SDS011;62915;50.832;4.462;2023-05-19T02:19:25;16.20;;;9.93;;
23680;SDS011;62915;50.832;4.462;2023-05-19T02:21:53;13.15;;;10.70;;
23680;SDS011;62915;50.832;4.462;2023-05-19T02:24:19;18.10;;;9.98;;
23680;SDS011;62915;50.832;4.462;2023-05-19T02:26:47;20.17;;;9.98;;
23680;SDS011;62915;50.832;4.462;2023-05-19T02:29:13;15.15;;;10.52;;
23680;SDS011;62915;50.832;4.462;2023-05-19T02:31:39;14.90;;;10.57;;
23680;SDS011;62915;50.832;4.462;2023-05-19T02:34:05;19.67;;;10.50;;
23680;SDS011;62915;50.832;4.462;2023-05-19T02:36:33;13.18;;;10.57;;
23680;SDS011;62915;50.832;4.462;2023-05-19T02:38:59;15.60;;;10.27;;
23680;SDS011;62915;50.832;4.462;2023-05-19T02:41:29;22.30;;;10.85;;
23680;SDS011;62915;50.832;4.462;2023-05-19T02:43:56;16.63;;;10.45;;
23680;SDS011;62915;50.832;4.462;2023-05-19T02:46:29;13.52;;;11.35;;
23680;SDS011;62915;50.832;4.462;2023-05-19T02:48:54;16.75;;;9.95;;
23680;SDS011;62915;50.832;4.462;2023-05-19T02:51:20;18.55;;;11.77;;
23680;SDS011;62915;50.832;4.462;2023-05-19T02:53:46;16.63;;;11.27;;
23680;SDS011;62915;50.832;4.462;2023-05-19T02:56:12;19.80;;;11.32;;
23680;SDS011;62915;50.832;4.462;2023-05-19T02:58:37;14.93;;;11.10;;
23680;SDS011;62915;50.832;4.462;2023-05-19T03:01:03;14.82;;;11.05;;
23680;SDS011;62915;50.832;4.462;2023-05-19T03:03:29;18.92;;;10.57;;
23680;SDS011;62915;50.832;4.462;2023-05-19T03:05:55;17.35;;;11.65;;
23680;SDS011;62915;50.832;4.462;2023-05-19T03:08:21;17.13;;;11.85;;
23680;SDS011;62915;50.832;4.462;2023-05-19T03:10:47;17.45;;;11.45;;
23680;SDS011;62915;50.832;4.462;2023-05-19T03:13:13;14.45;;;11.07;;
23680;SDS011;62915;50.832;4.462;2023-05-19T03:15:38;15.55;;;10.95;;
23680;SDS011;62915;50.832;4.462;2023-05-19T03:18:06;16.60;;;12.10;;
23680;SDS011;62915;50.832;4.462;2023-05-19T03:20:32;17.38;;;12.10;;
23680;SDS011;62915;50.832;4.462;2023-05-19T03:22:57;23.27;;;11.55;;
23680;SDS011;62915;50.832;4.462;2023-05-19T03:25:23;14.27;;;11.38;;
23680;SDS011;62915;50.832;4.462;2023-05-19T03:27:50;15.30;;;11.77;;
23680;SDS011;62915;50.832;4.462;2023-05-19T03:30:15;16.92;;;11.00;;
23680;SDS011;62915;50.832;4.462;2023-05-19T03:32:41;17.75;;;11.75;;
23680;SDS011;62915;50.832;4.462;2023-05-19T03:35:07;17.13;;;11.88;;
23680;SDS011;62915;50.832;4.462;2023-05-19T03:37:33;15.80;;;11.65;;
23680;SDS011;62915;50.832;4.462;2023-05-19T03:39:58;17.60;;;11.60;;
23680;SDS011;62915;50.832;4.462;2023-05-19T03:42:24;17.58;;;12.60;;
23680;SDS011;62915;50.832;4.462;2023-05-19T03:44:50;20.90;;;11.80;;
23680;SDS011;62915;50.832;4.462;2023-05-19T03:47:16;18.05;;;11.45;;
23680;SDS011;62915;50.832;4.462;2023-05-19T03:49:42;16.65;;;13.30;;
23680;SDS011;62915;50.832;4.462;2023-05-19T03:52:08;22.67;;;12.30;;
23680;SDS011;62915;50.832;4.462;2023-05-19T03:54:34;18.55;;;12.20;;
23680;SDS011;62915;50.832;4.462;2023-05-19T03:57:00;23.20;;;13.30;;
23680;SDS011;62915;50.832;4.462;2023-05-19T03:59:26;18.90;;;12.20;;
23680;SDS011;62915;50.832;4.462;2023-05-19T04:01:52;18.05;;;12.18;;
23680;SDS011;62915;50.832;4.462;2023-05-19T04:04:18;17.08;;;13.43;;
23680;SDS011;62915;50.832;4.462;2023-05-19T04:06:45;18.08;;;13.30;;
23680;SDS011;62915;50.832;4.462;2023-05-19T04:09:13;20.08;;;12.48;;
23680;SDS011;62915;50.832;4.462;2023-05-19T04:11:40;18.63;;;12.90;;
23680;SDS011;62915;50.832;4.462;2023-05-19T04:14:06;16.48;;;12.00;;
23680;SDS011;62915;50.832;4.462;2023-05-19T04:16:33;18.02;;;13.00;;
23680;SDS011;62915;50.832;4.462;2023-05-19T04:18:59;21.05;;;12.15;;
23680;SDS011;62915;50.832;4.462;2023-05-19T04:21:25;21.02;;;12.35;;
23680;SDS011;62915;50.832;4.462;2023-05-19T04:23:51;18.20;;;12.82;;
23680;SDS011;62915;50.832;4.462;2023-05-19T04:26:17;18.20;;;12.50;;
23680;SDS011;62915;50.832;4.462;2023-05-19T04:28:45;20.80;;;12.55;;
23680;SDS011;62915;50.832;4.462;2023-05-19T04:31:15;16.73;;;13.25;;
23680;SDS011;62915;50.832;4.462;2023-05-19T04:33:41;24.50;;;12.98;;
23680;SDS011;62915;50.832;4.462;2023-05-19T04:36:07;18.80;;;12.50;;
23680;SDS011;62915;50.832;4.462;2023-05-19T04:38:37;19.40;;;12.43;;
23680;SDS011;62915;50.832;4.462;2023-05-19T04:41:06;16.33;;;12.35;;
23680;SDS011;62915;50.832;4.462;2023-05-19T04:43:35;21.20;;;13.90;;
23680;SDS011;62915;50.832;4.462;2023-05-19T04:46:14;19.00;;;13.27;;
23680;SDS011;62915;50.832;4.462;2023-05-19T04:48:40;18.40;;;13.35;;
23680;SDS011;62915;50.832;4.462;2023-05-19T04:51:06;17.92;;;12.57;;
23680;SDS011;62915;50.832;4.462;2023-05-19T04:53:32;20.00;;;14.15;;
23680;SDS011;62915;50.832;4.462;2023-05-19T04:55:58;22.48;;;13.88;;
23680;SDS011;62915;50.832;4.462;2023-05-19T04:58:27;16.65;;;13.57;;
23680;SDS011;62915;50.832;4.462;2023-05-19T05:00:54;25.15;;;14.30;;
23680;SDS011;62915;50.832;4.462;2023-05-19T05:03:20;21.38;;;13.85;;
23680;SDS011;62915;50.832;4.462;2023-05-19T05:05:47;17.45;;;13.57;;
23680;SDS011;62915;50.832;4.462;2023-05-19T05:08:13;20.83;;;12.70;;
23680;SDS011;62915;50.832;4.462;2023-05-19T05:10:40;24.00;;;14.38;;
23680;SDS011;62915;50.832;4.462;2023-05-19T05:13:06;20.67;;;14.52;;
23680;SDS011;62915;50.832;4.462;2023-05-19T05:15:32;21.02;;;12.82;;
23680;SDS011;62915;50.832;4.462;2023-05-19T05:17:59;20.70;;;13.75;;
23680;SDS011;62915;50.832;4.462;2023-05-19T05:20:26;24.65;;;14.25;;
23680;SDS011;62915;50.832;4.462;2023-05-19T05:22:52;18.55;;;13.88;;
23680;SDS011;62915;50.832;4.462;2023-05-19T05:25:18;22.25;;;14.43;;
23680;SDS011;62915;50.832;4.462;2023-05-19T05:27:44;25.02;;;15.50;;
23680;SDS011;62915;50.832;4.462;2023-05-19T05:30:10;22.17;;;15.48;;
23680;SDS011;62915;50.832;4.462;2023-05-19T05:32:36;20.67;;;13.43;;
23680;SDS011;62915;50.832;4.462;2023-05-19T05:35:02;20.80;;;14.52;;
23680;SDS011;62915;50.832;4.462;2023-05-19T05:37:29;20.73;;;13.82;;
23680;SDS011;62915;50.832;4.462;2023-05-19T05:39:55;21.02;;;14.15;;
23680;SDS011;62915;50.832;4.462;2023-05-19T05:42:21;23.88;;;14.38;;
23680;SDS011;62915;50.832;4.462;2023-05-19T05:44:49;19.48;;;13.40;;
23680;SDS011;62915;50.832;4.462;2023-05-19T05:47:15;20.10;;;13.57;;
23680;SDS011;62915;50.832;4.462;2023-05-19T05:49:42;24.60;;;14.48;;
23680;SDS011;62915;50.832;4.462;2023-05-19T05:52:09;25.27;;;13.60;;
23680;SDS011;62915;50.832;4.462;2023-05-19T05:54:36;25.55;;;14.57;;
23680;SDS011;62915;50.832;4.462;2023-05-19T05:57:02;28.58;;;14.18;;
23680;SDS011;62915;50.832;4.462;2023-05-19T05:59:28;20.13;;;14.10;;
23680;SDS011;62915;50.832;4.462;2023-05-19T06:01:54;28.52;;;15.70;;
23680;SDS011;62915;50.832;4.462;2023-05-19T06:04:20;23.33;;;15.27;;
23680;SDS011;62915;50.832;4.462;2023-05-19T06:06:46;20.95;;;14.00;;
23680;SDS011;62915;50.832;4.462;2023-05-19T06:09:11;32.53;;;18.40;;
23680;SDS011;62915;50.832;4.462;2023-05-19T06:11:37;24.00;;;16.33;;
23680;SDS011;62915;50.832;4.462;2023-05-19T06:14:03;24.20;;;15.20;;
23680;SDS011;62915;50.832;4.462;2023-05-19T06:16:29;105.50;;;20.38;;
23680;SDS011;62915;50.832;4.462;2023-05-19T06:18:55;28.13;;;13.95;;
23680;SDS011;62915;50.832;4.462;2023-05-19T06:21:20;27.65;;;13.60;;
23680;SDS011;62915;50.832;4.462;2023-05-19T06:23:46;24.00;;;12.65;;
23680;SDS011;62915;50.832;4.462;2023-05-19T06:26:12;22.63;;;13.25;;
23680;SDS011;62915;50.832;4.462;2023-05-19T06:28:39;31.88;;;20.05;;
23680;SDS011;62915;50.832;4.462;2023-05-19T06:31:04;22.77;;;14.48;;
23680;SDS011;62915;50.832;4.462;2023-05-19T06:33:30;21.63;;;13.20;;
23680;SDS011;62915;50.832;4.462;2023-05-19T06:35:56;19.48;;;12.88;;
23680;SDS011;62915;50.832;4.462;2023-05-19T06:38:22;20.05;;;13.20;;
23680;SDS011;62915;50.832;4.462;2023-05-19T06:40:48;20.95;;;12.98;;
23680;SDS011;62915;50.832;4.462;2023-05-19T06:43:13;21.60;;;14.00;;
23680;SDS011;62915;50.832;4.462;2023-05-19T06:45:39;21.10;;;13.00;;
23680;SDS011;62915;50.832;4.462;2023-05-19T06:48:05;24.58;;;15.13;;
23680;SDS011;62915;50.832;4.462;2023-05-19T06:50:31;19.25;;;13.32;;
23680;SDS011;62915;50.832;4.462;2023-05-19T06:52:56;33.67;;;14.40;;
23680;SDS011;62915;50.832;4.462;2023-05-19T06:55:22;21.40;;;14.02;;
23680;SDS011;62915;50.832;4.462;2023-05-19T06:57:48;22.15;;;14.07;;
23680;SDS011;62915;50.832;4.462;2023-05-19T07:00:14;19.98;;;13.32;;
23680;SDS011;62915;50.832;4.462;2023-05-19T07:02:42;21.13;;;13.45;;
23680;SDS011;62915;50.832;4.462;2023-05-19T07:05:08;19.02;;;13.35;;
23680;SDS011;62915;50.832;4.462;2023-05-19T07:07:34;78.75;;;37.58;;
23680;SDS011;62915;50.832;4.462;2023-05-19T07:10:00;29.40;;;13.73;;
23680;SDS011;62915;50.832;4.462;2023-05-19T07:12:25;17.05;;;12.15;;
23680;SDS011;62915;50.832;4.462;2023-05-19T07:14:51;23.27;;;12.75;;
23680;SDS011;62915;50.832;4.462;2023-05-19T07:17:17;20.13;;;12.45;;
23680;SDS011;62915;50.832;4.462;2023-05-19T07:19:43;19.27;;;13.30;;
23680;SDS011;62915;50.832;4.462;2023-05-19T07:22:10;20.70;;;13.27;;
23680;SDS011;62915;50.832;4.462;2023-05-19T07:24:36;18.35;;;13.30;;
23680;SDS011;62915;50.832;4.462;2023-05-19T07:27:01;16.65;;;12.45;;
23680;SDS011;62915;50.832;4.462;2023-05-19T07:29:27;17.27;;;11.68;;
23680;SDS011;62915;50.832;4.462;2023-05-19T07:31:53;24.55;;;12.95;;
23680;SDS011;62915;50.832;4.462;2023-05-19T07:34:22;18.95;;;13.18;;
23680;SDS011;62915;50.832;4.462;2023-05-19T07:36:48;18.52;;;11.85;;
23680;SDS011;62915;50.832;4.462;2023-05-19T07:39:15;18.13;;;12.20;;
23680;SDS011;62915;50.832;4.462;2023-05-19T07:41:41;15.70;;;11.27;;
23680;SDS011;62915;50.832;4.462;2023-05-19T07:44:07;19.85;;;14.02;;
23680;SDS011;62915;50.832;4.462;2023-05-19T07:46:34;20.80;;;13.68;;
23680;SDS011;62915;50.832;4.462;2023-05-19T07:49:01;18.58;;;12.48;;
23680;SDS011;62915;50.832;4.462;2023-05-19T07:51:27;19.10;;;11.38;;
23680;SDS011;62915;50.832;4.462;2023-05-19T07:53:53;19.73;;;12.52;;
23680;SDS011;62915;50.832;4.462;2023-05-19T07:56:19;17.63;;;12.90;;
23680;SDS011;62915;50.832;4.462;2023-05-19T07:58:45;25.52;;;13.45;;
23680;SDS011;62915;50.832;4.462;2023-05-19T08:01:11;16.88;;;11.52;;
23680;SDS011;62915;50.832;4.462;2023-05-19T08:03:37;14.73;;;10.70;;
23680;SDS011;62915;50.832;4.462;2023-05-19T08:06:03;15.13;;;9.35;;
23680;SDS011;62915;50.832;4.462;2023-05-19T08:08:29;16.55;;;10.82;;
23680;SDS011;62915;50.832;4.462;2023-05-19T08:11:00;23.30;;;10.40;;
23680;SDS011;62915;50.832;4.462;2023-05-19T08:13:27;19.92;;;10.27;;
23680;SDS011;62915;50.832;4.462;2023-05-19T08:15:52;19.95;;;11.65;;
23680;SDS011;62915;50.832;4.462;2023-05-19T08:18:23;17.75;;;10.18;;
23680;SDS011;62915;50.832;4.462;2023-05-19T08:20:51;14.70;;;9.68;;
23680;SDS011;62915;50.832;4.462;2023-05-19T08:23:17;13.90;;;9.73;;
23680;SDS011;62915;50.832;4.462;2023-05-19T08:25:43;15.27;;;8.73;;
23680;SDS011;62915;50.832;4.462;2023-05-19T08:28:09;12.55;;;7.95;;
23680;SDS011;62915;50.832;4.462;2023-05-19T08:30:35;15.93;;;9.02;;
23680;SDS011;62915;50.832;4.462;2023-05-19T08:33:01;13.13;;;8.27;;
23680;SDS011;62915;50.832;4.462;2023-05-19T08:35:27;10.90;;;7.97;;
23680;SDS011;62915;50.832;4.462;2023-05-19T08:37:52;22.05;;;9.50;;
23680;SDS011;62915;50.832;4.462;2023-05-19T08:40:18;23.70;;;9.52;;
23680;SDS011;62915;50.832;4.462;2023-05-19T08:42:45;15.30;;;8.30;;
23680;SDS011;62915;50.832;4.462;2023-05-19T08:45:11;15.27;;;11.43;;
23680;SDS011;62915;50.832;4.462;2023-05-19T08:47:37;30.58;;;17.02;;
23680;SDS011;62915;50.832;4.462;2023-05-19T08:50:05;17.02;;;10.52;;
23680;SDS011;62915;50.832;4.462;2023-05-19T08:55:14;9.93;;;6.60;;
23680;SDS011;62915;50.832;4.462;2023-05-19T08:57:51;10.90;;;7.03;;
23680;SDS011;62915;50.832;4.462;2023-05-19T09:00:17;15.95;;;7.35;;
23680;SDS011;62915;50.832;4.462;2023-05-19T09:02:44;17.60;;;6.80;;
23680;SDS011;62915;50.832;4.462;2023-05-19T09:05:13;30.77;;;7.47;;
23680;SDS011;62915;50.832;4.462;2023-05-19T09:07:40;12.23;;;5.80;;
23680;SDS011;62915;50.832;4.462;2023-05-19T09:10:08;9.85;;;5.55;;
23680;SDS011;62915;50.832;4.462;2023-05-19T09:12:39;8.25;;;5.00;;
23680;SDS011;62915;50.832;4.462;2023-05-19T09:15:06;9.93;;;5.82;;
23680;SDS011;62915;50.832;4.462;2023-05-19T09:17:33;14.88;;;5.50;;
23680;SDS011;62915;50.832;4.462;2023-05-19T09:20:01;12.13;;;5.53;;
23680;SDS011;62915;50.832;4.462;2023-05-19T09:22:29;10.43;;;5.30;;
23680;SDS011;62915;50.832;4.462;2023-05-19T09:24:55;12.50;;;5.72;;
23680;SDS011;62915;50.832;4.462;2023-05-19T09:27:21;8.10;;;4.50;;
23680;SDS011;62915;50.832;4.462;2023-05-19T09:29:47;16.33;;;7.70;;
23680;SDS011;62915;50.832;4.462;2023-05-19T09:32:23;12.43;;;6.47;;
23680;SDS011;62915;50.832;4.462;2023-05-19T09:34:51;12.20;;;4.22;;
23680;SDS011;62915;50.832;4.462;2023-05-19T09:37:21;15.05;;;4.47;;
23680;SDS011;62915;50.832;4.462;2023-05-19T09:39:48;9.95;;;3.83;;
23680;SDS011;62915;50.832;4.462;2023-05-19T09:42:22;12.77;;;3.58;;
23680;SDS011;62915;50.832;4.462;2023-05-19T09:45:03;8.40;;;4.05;;
23680;SDS011;62915;50.832;4.462;2023-05-19T09:47:36;11.30;;;4.22;;
23680;SDS011;62915;50.832;4.462;2023-05-19T09:50:06;9.75;;;4.00;;
23680;SDS011;62915;50.832;4.462;2023-05-19T09:52:34;7.20;;;2.88;;
23680;SDS011;62915;50.832;4.462;2023-05-19T09:55:03;8.63;;;3.88;;
23680;SDS011;62915;50.832;4.462;2023-05-19T09:57:33;10.25;;;5.43;;
23680;SDS011;62915;50.832;4.462;2023-05-19T10:00:01;14.68;;;3.83;;
23680;SDS011;62915;50.832;4.462;2023-05-19T10:02:49;11.07;;;2.90;;
23680;SDS011;62915;50.832;4.462;2023-05-19T10:05:15;7.10;;;2.80;;
23680;SDS011;62915;50.832;4.462;2023-05-19T10:07:44;7.25;;;3.65;;
23680;SDS011;62915;50.832;4.462;2023-05-19T10:10:19;6.88;;;3.33;;
23680;SDS011;62915;50.832;4.462;2023-05-19T10:12:46;6.65;;;3.22;;
23680;SDS011;62915;50.832;4.462;2023-05-19T10:15:13;9.85;;;6.00;;
23680;SDS011;62915;50.832;4.462;2023-05-19T10:17:41;8.95;;;3.65;;
23680;SDS011;62915;50.832;4.462;2023-05-19T10:20:09;13.60;;;3.75;;
23680;SDS011;62915;50.832;4.462;2023-05-19T10:22:39;11.90;;;3.50;;
23680;SDS011;62915;50.832;4.462;2023-05-19T10:25:07;17.77;;;9.55;;
23680;SDS011;62915;50.832;4.462;2023-05-19T10:27:38;5.90;;;3.72;;
23680;SDS011;62915;50.832;4.462;2023-05-19T10:30:29;11.02;;;3.80;;
23680;SDS011;62915;50.832;4.462;2023-05-19T10:33:16;12.20;;;4.20;;
23680;SDS011;62915;50.832;4.462;2023-05-19T10:38:59;10.13;;;4.30;;
23680;SDS011;62915;50.832;4.462;2023-05-19T10:41:52;11.48;;;5.93;;
23680;SDS011;62915;50.832;4.462;2023-05-19T10:47:08;14.15;;;7.68;;
23680;SDS011;62915;50.832;4.462;2023-05-19T10:49:36;12.20;;;4.32;;
23680;SDS011;62915;50.832;4.462;2023-05-19T10:52:03;9.77;;;4.75;;
23680;SDS011;62915;50.832;4.462;2023-05-19T10:54:47;11.85;;;5.30;;
23680;SDS011;62915;50.832;4.462;2023-05-19T10:57:14;9.50;;;4.70;;
23680;SDS011;62915;50.832;4.462;2023-05-19T10:59:41;9.35;;;4.90;;
23680;SDS011;62915;50.832;4.462;2023-05-19T11:02:09;11.65;;;4.43;;
23680;SDS011;62915;50.832;4.462;2023-05-19T11:05:19;8.07;;;4.22;;
23680;SDS011;62915;50.832;4.462;2023-05-19T11:07:57;11.07;;;4.00;;
23680;SDS011;62915;50.832;4.462;2023-05-19T11:10:34;128.02;;;14.93;;
23680;SDS011;62915;50.832;4.462;2023-05-19T11:13:00;11.27;;;5.10;;
23680;SDS011;62915;50.832;4.462;2023-05-19T11:15:26;83.47;;;11.15;;
23680;SDS011;62915;50.832;4.462;2023-05-19T11:17:52;17.25;;;4.53;;
23680;SDS011;62915;50.832;4.462;2023-05-19T11:20:25;198.60;;;21.70;;
23680;SDS011;62915;50.832;4.462;2023-05-19T11:28:19;244.45;;;26.40;;
23680;SDS011;62915;50.832;4.462;2023-05-19T11:30:52;10.02;;;4.10;;
23680;SDS011;62915;50.832;4.462;2023-05-19T11:33:19;229.40;;;23.23;;
23680;SDS011;62915;50.832;4.462;2023-05-19T11:35:45;15.00;;;4.28;;
23680;SDS011;62915;50.832;4.462;2023-05-19T11:38:13;246.30;;;24.15;;
23680;SDS011;62915;50.832;4.462;2023-05-19T11:40:40;26.52;;;7.78;;
23680;SDS011;62915;50.832;4.462;2023-05-19T11:43:07;9.80;;;4.38;;
23680;SDS011;62915;50.832;4.462;2023-05-19T11:45:33;20.33;;;4.85;;
23680;SDS011;62915;50.832;4.462;2023-05-19T11:47:59;10.00;;;3.20;;
23680;SDS011;62915;50.832;4.462;2023-05-19T11:50:26;9.38;;;3.47;;
23680;SDS011;62915;50.832;4.462;2023-05-19T11:52:53;13.18;;;3.50;;
23680;SDS011;62915;50.832;4.462;2023-05-19T11:55:19;17.58;;;3.90;;
23680;SDS011;62915;50.832;4.462;2023-05-19T11:57:56;10.85;;;3.38;;
23680;SDS011;62915;50.832;4.462;2023-05-19T12:00:28;8.38;;;3.53;;
23680;SDS011;62915;50.832;4.462;2023-05-19T12:03:01;11.60;;;4.03;;
23680;SDS011;62915;50.832;4.462;2023-05-19T12:05:27;233.60;;;22.85;;
23680;SDS011;62915;50.832;4.462;2023-05-19T12:07:53;67.57;;;7.20;;
23680;SDS011;62915;50.832;4.462;2023-05-19T12:12:52;8.52;;;3.10;;
23680;SDS011;62915;50.832;4.462;2023-05-19T12:15:19;11.27;;;2.83;;
23680;SDS011;62915;50.832;4.462;2023-05-19T12:17:57;5.78;;;2.35;;
23680;SDS011;62915;50.832;4.462;2023-05-19T12:20:25;9.10;;;2.40;;
23680;SDS011;62915;50.832;4.462;2023-05-19T12:22:53;8.43;;;2.95;;
23680;SDS011;62915;50.832;4.462;2023-05-19T12:25:19;6.03;;;2.72;;
23680;SDS011;62915;50.832;4.462;2023-05-19T12:27:46;10.45;;;3.03;;
23680;SDS011;62915;50.832;4.462;2023-05-19T12:30:13;10.32;;;3.05;;
23680;SDS011;62915;50.832;4.462;2023-05-19T12:32:40;7.63;;;2.75;;
23680;SDS011;62915;50.832;4.462;2023-05-19T12:35:07;9.38;;;3.25;;
23680;SDS011;62915;50.832;4.462;2023-05-19T12:37:34;8.57;;;2.80;;
23680;SDS011;62915;50.832;4.462;2023-05-19T12:40:06;10.55;;;2.78;;
23680;SDS011;62915;50.832;4.462;2023-05-19T12:42:32;6.07;;;2.63;;
23680;SDS011;62915;50.832;4.462;2023-05-19T12:45:00;14.95;;;3.25;;
23680;SDS011;62915;50.832;4.462;2023-05-19T12:47:30;18.27;;;4.07;;
23680;SDS011;62915;50.832;4.462;2023-05-19T12:52:33;8.00;;;3.00;;
23680;SDS011;62915;50.832;4.462;2023-05-19T12:55:06;7.70;;;2.80;;
23680;SDS011;62915;50.832;4.462;2023-05-19T12:57:36;9.82;;;3.00;;
23680;SDS011;62915;50.832;4.462;2023-05-19T13:02:34;10.00;;;3.70;;
23680;SDS011;62915;50.832;4.462;2023-05-19T13:05:01;8.40;;;3.17;;
23680;SDS011;62915;50.832;4.462;2023-05-19T13:07:28;9.63;;;3.55;;
23680;SDS011;62915;50.832;4.462;2023-05-19T13:09:54;14.38;;;3.47;;
23680;SDS011;62915;50.832;4.462;2023-05-19T13:12:20;9.15;;;2.78;;
23680;SDS011;62915;50.832;4.462;2023-05-19T13:14:48;9.50;;;3.55;;
23680;SDS011;62915;50.832;4.462;2023-05-19T13:17:14;7.25;;;3.15;;
23680;SDS011;62915;50.832;4.462;2023-05-19T13:19:43;8.38;;;3.17;;
23680;SDS011;62915;50.832;4.462;2023-05-19T13:22:09;6.82;;;3.33;;
23680;SDS011;62915;50.832;4.462;2023-05-19T13:24:34;8.90;;;2.92;;
23680;SDS011;62915;50.832;4.462;2023-05-19T13:27:00;11.77;;;4.13;;
23680;SDS011;62915;50.832;4.462;2023-05-19T13:29:27;8.25;;;4.53;;
23680;SDS011;62915;50.832;4.462;2023-05-19T13:31:52;10.50;;;4.60;;
23680;SDS011;62915;50.832;4.462;2023-05-19T13:34:18;4.88;;;3.13;;
23680;SDS011;62915;50.832;4.462;2023-05-19T13:36:44;5.90;;;2.85;;
23680;SDS011;62915;50.832;4.462;2023-05-19T13:39:12;24.83;;;11.15;;
23680;SDS011;62915;50.832;4.462;2023-05-19T13:41:38;8.95;;;3.95;;
23680;SDS011;62915;50.832;4.462;2023-05-19T13:44:03;8.38;;;3.03;;
23680;SDS011;62915;50.832;4.462;2023-05-19T13:46:29;11.48;;;3.20;;
23680;SDS011;62915;50.832;4.462;2023-05-19T13:48:58;10.82;;;3.17;;
23680;SDS011;62915;50.832;4.462;2023-05-19T13:51:23;19.20;;;3.22;;
23680;SDS011;62915;50.832;4.462;2023-05-19T13:53:49;19.67;;;4.40;;
23680;SDS011;62915;50.832;4.462;2023-05-19T13:56:17;9.02;;;3.08;;
23680;SDS011;62915;50.832;4.462;2023-05-19T13:58:43;12.90;;;3.63;;
23680;SDS011;62915;50.832;4.462;2023-05-19T14:01:08;98.10;;;12.75;;
23680;SDS011;62915;50.832;4.462;2023-05-19T14:03:34;23.33;;;3.90;;
23680;SDS011;62915;50.832;4.462;2023-05-19T14:06:01;14.30;;;3.30;;
23680;SDS011;62915;50.832;4.462;2023-05-19T14:08:27;11.32;;;3.40;;
23680;SDS011;62915;50.832;4.462;2023-05-19T14:10:53;8.38;;;2.90;;
23680;SDS011;62915;50.832;4.462;2023-05-19T14:13:19;15.63;;;3.42;;
23680;SDS011;62915;50.832;4.462;2023-05-19T14:15:47;8.25;;;3.40;;
23680;SDS011;62915;50.832;4.462;2023-05-19T14:18:13;6.28;;;3.47;;
23680;SDS011;62915;50.832;4.462;2023-05-19T14:20:39;18.38;;;4.60;;
23680;SDS011;62915;50.832;4.462;2023-05-19T14:23:05;7.40;;;2.95;;
23680;SDS011;62915;50.832;4.462;2023-05-19T14:25:31;9.23;;;3.45;;
23680;SDS011;62915;50.832;4.462;2023-05-19T14:27:57;10.82;;;3.03;;
23680;SDS011;62915;50.832;4.462;2023-05-19T14:30:22;15.50;;;2.55;;
23680;SDS011;62915;50.832;4.462;2023-05-19T14:32:48;13.48;;;3.15;;
23680;SDS011;62915;50.832;4.462;2023-05-19T14:35:14;31.70;;;5.07;;
23680;SDS011;62915;50.832;4.462;2023-05-19T14:37:40;8.20;;;2.83;;
23680;SDS011;62915;50.832;4.462;2023-05-19T14:40:06;19.60;;;3.80;;
23680;SDS011;62915;50.832;4.462;2023-05-19T14:42:32;19.85;;;4.40;;
23680;SDS011;62915;50.832;4.462;2023-05-19T14:44:58;10.02;;;3.10;;
23680;SDS011;62915;50.832;4.462;2023-05-19T14:47:23;6.18;;;2.92;;
23680;SDS011;62915;50.832;4.462;2023-05-19T14:49:49;33.42;;;5.65;;
23680;SDS011;62915;50.832;4.462;2023-05-19T14:52:15;14.57;;;3.25;;
23680;SDS011;62915;50.832;4.462;2023-05-19T14:54:42;19.25;;;3.50;;
23680;SDS011;62915;50.832;4.462;2023-05-19T14:57:08;8.50;;;3.08;;
23680;SDS011;62915;50.832;4.462;2023-05-19T14:59:37;10.48;;;3.30;;
23680;SDS011;62915;50.832;4.462;2023-05-19T15:02:03;13.18;;;3.17;;
23680;SDS011;62915;50.832;4.462;2023-05-19T15:04:29;19.10;;;3.72;;
23680;SDS011;62915;50.832;4.462;2023-05-19T15:06:55;12.82;;;2.95;;
23680;SDS011;62915;50.832;4.462;2023-05-19T15:09:21;12.85;;;3.00;;
23680;SDS011;62915;50.832;4.462;2023-05-19T15:11:47;13.32;;;2.95;;